Time;durP1;ratioP1;P1;durP2;ratioP2;P2;SDS_P1;SDS_P2;PMS_P1;PMS_P2;Temp;Humidity;BMP_temperature;BMP_pressure;BME280_temperature;BME280_humidity;BME280_pressure;Samples;Min_cycle;Max_cycle;Signal;HPM_P1;HPM_P2
2022/05/31 00:02:10;;;;;;;9.50;6.65;;;;;;;22.35;42.30;101564.97;4977708;28;20042;-88
2022/05/31 00:04:36;;;;;;;9.48;6.38;;;;;;;22.26;42.31;101547.47;5003878;28;20026;-88
2022/05/31 00:07:02;;;;;;;10.43;6.25;;;;;;;22.23;42.39;101550.47;4993671;28;20040;-88
2022/05/31 00:09:28;;;;;;;9.15;6.38;;;;;;;22.29;42.27;101566.53;5010500;28;20101;-88
2022/05/31 00:11:55;;;;;;;11.73;6.80;;;;;;;22.22;42.44;101554.94;4991550;28;20543;-89
2022/05/31 00:14:21;;;;;;;10.20;6.28;;;;;;;22.33;42.64;101569.63;4993495;28;20125;-88
2022/05/31 00:16:47;;;;;;;11.82;6.72;;;;;;;22.31;42.75;101566.34;5011692;28;20052;-88
2022/05/31 00:19:17;;;;;;;7.47;5.72;;;;;;;22.20;42.61;101550.84;4994525;28;20037;-87
2022/05/31 00:22:07;;;;;;;9.63;5.78;;;;;;;22.30;42.21;101560.22;4989661;28;20061;-88
2022/05/31 00:24:33;;;;;;;9.13;6.05;;;;;;;22.31;42.54;101556.56;5014145;28;20026;-89
2022/05/31 00:26:58;;;;;;;10.95;6.75;;;;;;;22.13;42.41;101544.59;5010266;28;20044;-89
2022/05/31 00:29:24;;;;;;;8.00;5.45;;;;;;;22.31;42.38;101561.03;5011628;28;20503;-89
2022/05/31 00:31:51;;;;;;;9.38;5.28;;;;;;;22.25;42.61;101557.25;4998742;28;20036;-88
2022/05/31 00:34:17;;;;;;;9.98;5.78;;;;;;;22.26;42.73;101561.56;5006277;28;20622;-90
2022/05/31 00:36:46;;;;;;;8.32;5.65;;;;;;;22.11;42.67;101528.88;5011084;28;20052;-88
2022/05/31 00:39:12;;;;;;;8.20;5.75;;;;;;;21.99;42.24;101512.50;5011246;28;20038;-88
2022/05/31 00:41:39;;;;;;;10.85;6.03;;;;;;;22.25;42.38;101551.13;5012863;28;20084;-88
2022/05/31 00:44:08;;;;;;;7.18;5.47;;;;;;;22.16;42.54;101550.38;5006871;28;20046;-88
2022/05/31 00:46:51;;;;;;;7.85;4.97;;;;;;;22.25;42.26;101556.41;5000321;28;20038;-88
2022/05/31 00:49:44;;;;;;;8.45;5.57;;;;;;;22.22;42.36;101556.78;5010262;28;20507;-88
2022/05/31 00:52:18;;;;;;;6.95;4.78;;;;;;;22.22;42.45;101554.94;5002397;28;20042;-88
2022/05/31 00:55:00;;;;;;;7.20;4.68;;;;;;;22.12;42.68;101546.44;4997498;28;20097;-88
2022/05/31 00:57:27;;;;;;;8.02;5.15;;;;;;;21.97;42.60;101533.06;5010654;28;20074;-89
2022/05/31 00:59:58;;;;;;;7.97;5.25;;;;;;;22.19;42.72;101557.97;4989567;28;20542;-88
2022/05/31 01:02:25;;;;;;;7.40;4.65;;;;;;;22.09;42.32;101545.97;4982712;28;20026;-88
2022/05/31 01:04:57;;;;;;;8.60;4.95;;;;;;;22.00;42.39;101527.41;4990336;28;20033;-89
2022/05/31 01:07:23;;;;;;;7.95;5.10;;;;;;;22.09;42.36;101544.13;5013396;28;20030;-89
2022/05/31 01:09:49;;;;;;;6.30;4.68;;;;;;;22.15;42.60;101561.16;4991043;28;20030;-88
2022/05/31 01:12:43;;;;;;;6.80;5.15;;;;;;;22.01;42.68;101534.38;4995360;28;20045;-88
2022/05/31 01:15:46;;;;;;;6.38;4.70;;;;;;;22.06;42.51;101538.34;4971701;28;20121;-88
2022/05/31 01:18:50;;;;;;;6.47;4.47;;;;;;;22.10;42.58;101547.63;4997166;28;20576;-88
2022/05/31 01:21:38;;;;;;;7.50;4.45;;;;;;;22.11;42.60;101550.09;4999910;28;20042;-88
2022/05/31 01:24:23;;;;;;;8.02;4.63;;;;;;;22.14;42.49;101544.41;5010238;28;20045;-87
2022/05/31 01:27:00;;;;;;;7.03;4.15;;;;;;;21.96;42.57;101527.94;5007180;28;20046;-88
2022/05/31 01:29:35;;;;;;;5.90;4.20;;;;;;;22.08;42.26;101541.63;5007017;28;20046;-88
2022/05/31 01:32:05;;;;;;;6.32;4.25;;;;;;;22.06;42.37;101544.47;5004614;28;20072;-88
2022/05/31 01:34:48;;;;;;;7.40;4.25;;;;;;;22.08;42.60;101545.09;4998090;28;20145;-88
2022/05/31 01:37:14;;;;;;;5.47;4.07;;;;;;;21.94;42.71;101529.97;5006716;28;20049;-88
2022/05/31 01:39:53;;;;;;;5.85;4.03;;;;;;;22.07;42.74;101546.09;5007861;28;20046;-87
2022/05/31 01:42:26;;;;;;;8.73;4.78;;;;;;;21.95;42.61;101534.25;5004808;28;20458;-88
2022/05/31 01:45:00;;;;;;;6.43;4.22;;;;;;;21.99;42.67;101531.06;5009314;28;20084;-88
2022/05/31 01:47:27;;;;;;;5.70;3.83;;;;;;;21.96;42.62;101533.25;5009336;28;20041;-88
2022/05/31 01:49:54;;;;;;;6.85;3.83;;;;;;;22.03;42.42;101550.91;4982668;28;20041;-88
2022/05/31 01:52:22;;;;;;;5.72;3.85;;;;;;;21.89;42.26;101519.03;5011176;28;20038;-87
2022/05/31 01:54:49;;;;;;;5.68;3.92;;;;;;;22.06;42.53;101549.75;5009502;28;20072;-87
2022/05/31 01:57:17;;;;;;;5.63;4.10;;;;;;;21.86;42.26;101524.69;5007042;28;20575;-87
2022/05/31 01:59:47;;;;;;;6.07;4.03;;;;;;;21.79;42.55;101506.03;4993939;28;20062;-88
2022/05/31 02:02:15;;;;;;;;;;;;;;;22.05;42.69;101556.06;5010879;28;20034;-88
2022/05/31 02:04:42;;;;;;;7.10;3.85;;;;;;;22.05;42.35;101542.00;4983802;28;20364;-88
2022/05/31 02:07:20;;;;;;;6.75;4.10;;;;;;;21.48;42.19;101460.16;5008155;28;20047;-88
2022/05/31 02:09:50;;;;;;;5.72;4.03;;;;;;;21.90;42.36;101528.63;5013471;28;20116;-88
2022/05/31 02:12:25;;;;;;;5.05;3.55;;;;;;;22.03;42.30;101542.13;4968221;28;20042;-88
2022/05/31 02:15:11;;;;;;;4.95;3.47;;;;;;;21.80;42.35;101512.16;4982150;28;20056;-87
2022/05/31 02:17:43;;;;;;;6.00;4.10;;;;;;;21.38;42.71;101441.88;4989881;28;20108;-87
2022/05/31 02:20:27;;;;;;;5.40;3.40;;;;;;;21.91;42.59;101527.66;4996881;28;20570;-87
2022/05/31 02:22:53;;;;;;;4.55;3.30;;;;;;;21.95;42.37;101529.78;5009154;28;20029;-87
2022/05/31 02:25:19;;;;;;;4.70;3.55;;;;;;;21.96;42.46;101534.06;5004693;28;20038;-87
2022/05/31 02:27:45;;;;;;;5.28;3.67;;;;;;;22.00;42.28;101538.03;4989660;28;20030;-86
2022/05/31 02:30:12;;;;;;;5.50;3.50;;;;;;;21.78;42.49;101509.69;4969462;28;20037;-87
2022/05/31 02:32:39;;;;;;;5.03;3.72;;;;;;;21.99;42.71;101541.66;4987357;28;20944;-87
2022/05/31 02:35:05;;;;;;;4.10;3.03;;;;;;;21.97;42.74;101540.19;4995701;28;20133;-87
2022/05/31 02:37:31;;;;;;;5.68;3.00;;;;;;;22.01;42.22;101533.53;4990616;28;20124;-87
2022/05/31 02:39:58;;;;;;;5.28;3.78;;;;;;;21.97;42.61;101540.19;4992880;28;20034;-87
2022/05/31 02:42:23;;;;;;;3.83;3.20;;;;;;;21.62;42.30;101475.31;5009357;28;20085;-87
2022/05/31 02:44:51;;;;;;;6.15;3.22;;;;;;;21.74;42.50;101504.91;5009293;28;20037;-88
2022/05/31 02:47:17;;;;;;;5.53;3.55;;;;;;;21.95;42.49;101539.56;4989695;28;20643;-87
2022/05/31 02:49:44;;;;;;;4.60;3.03;;;;;;;21.95;42.38;101534.25;4974561;28;20034;-87
2022/05/31 02:52:10;;;;;;;4.63;3.72;;;;;;;21.55;42.39;101466.44;5011416;28;20527;-87
2022/05/31 02:54:35;;;;;;;5.60;3.60;;;;;;;21.96;42.55;101533.25;5004339;28;20030;-87
2022/05/31 02:57:19;;;;;;;4.20;2.97;;;;;;;21.62;42.45;101473.50;5007978;28;20123;-86
2022/05/31 03:00:04;;;;;;;4.70;3.30;;;;;;;21.94;42.26;101524.66;5006829;28;20042;-86
2022/05/31 03:02:44;;;;;;;4.22;2.85;;;;;;;21.88;42.29;101518.22;5007667;28;20085;-87
2022/05/31 03:05:50;;;;;;;5.72;3.50;;;;;;;21.83;42.72;101509.13;4950861;28;20134;-87
2022/05/31 03:08:19;;;;;;;4.78;3.17;;;;;;;21.77;42.48;101502.72;4967329;28;20046;-87
2022/05/31 03:11:33;;;;;;;4.47;3.38;;;;;;;21.85;42.52;101513.25;4997412;28;20120;-87
2022/05/31 03:14:04;;;;;;;4.15;2.88;;;;;;;21.87;42.40;101518.38;4974972;28;20108;-87
2022/05/31 03:16:31;;;;;;;4.10;3.00;;;;;;;21.79;42.63;101506.03;5009052;28;20129;-87
2022/05/31 03:19:03;;;;;;;4.38;3.30;;;;;;;21.84;42.51;101513.44;5009180;28;20535;-87
2022/05/31 03:21:36;;;;;;;3.80;2.80;;;;;;;21.87;42.68;101518.38;4990182;28;20065;-87
2022/05/31 03:24:13;;;;;;;5.38;3.10;;;;;;;21.76;42.61;101501.06;5003050;28;20048;-87
2022/05/31 03:26:40;;;;;;;3.33;2.83;;;;;;;21.89;42.59;101514.56;5011401;28;20022;-87
2022/05/31 03:29:06;;;;;;;5.22;3.08;;;;;;;21.46;42.47;101448.94;4994725;28;20129;-88
2022/05/31 03:31:32;;;;;;;4.38;3.00;;;;;;;21.80;42.63;101510.31;5005003;28;20101;-88
2022/05/31 03:33:58;;;;;;;5.25;2.55;;;;;;;21.87;42.55;101510.44;4992164;28;20056;-88
2022/05/31 03:36:24;;;;;;;4.25;2.75;;;;;;;21.87;42.67;101513.91;4999979;28;20045;-87
2022/05/31 03:38:59;;;;;;;5.35;3.22;;;;;;;21.78;42.40;101499.06;5010706;28;20057;-88
2022/05/31 03:41:24;;;;;;;4.03;2.70;;;;;;;21.86;42.77;101508.78;5009770;28;20473;-89
2022/05/31 03:43:53;;;;;;;4.43;2.85;;;;;;;21.79;42.34;101503.38;4993153;28;20038;-90
2022/05/31 03:46:22;;;;;;;4.25;2.85;;;;;;;21.54;42.41;101456.81;5011323;28;20044;-88
2022/05/31 03:48:54;;;;;;;2.88;2.25;;;;;;;21.85;42.32;101507.97;5005630;28;20042;-89
2022/05/31 03:51:20;;;;;;;5.28;2.90;;;;;;;21.82;42.38;101502.19;4997822;28;20042;-89
2022/05/31 03:53:47;;;;;;;3.65;2.63;;;;;;;21.70;42.42;101489.34;4985950;28;20060;-89
2022/05/31 03:56:17;;;;;;;4.57;2.50;;;;;;;21.77;42.78;101501.91;5012989;28;20143;-88
2022/05/31 03:58:43;;;;;;;3.40;2.22;;;;;;;21.83;42.46;101514.44;5008900;28;20872;-88
2022/05/31 04:01:16;;;;;;;3.83;2.53;;;;;;;21.76;42.57;101503.72;4977661;28;20080;-88
2022/05/31 04:03:42;;;;;;;3.95;2.50;;;;;;;21.54;42.38;101470.88;5009506;28;20602;-90
2022/05/31 04:06:08;;;;;;;4.07;2.83;;;;;;;21.75;42.37;101503.91;4966695;28;20038;-89
2022/05/31 04:08:34;;;;;;;3.83;2.58;;;;;;;21.81;42.32;101505.84;4997338;28;20119;-90
2022/05/31 04:10:59;;;;;;;2.83;2.45;;;;;;;21.68;42.31;101486.03;4994021;28;20089;-90
2022/05/31 04:13:27;;;;;;;3.85;2.65;;;;;;;21.73;42.60;101492.66;4986078;28;20037;-89
2022/05/31 04:16:14;;;;;;;3.50;2.40;;;;;;;21.79;42.58;101506.03;5012957;28;20044;-89
2022/05/31 04:18:43;;;;;;;2.85;2.40;;;;;;;21.52;42.78;101467.59;5003316;28;20042;-88
2022/05/31 04:21:12;;;;;;;2.92;2.10;;;;;;;21.71;42.62;101490.16;4962625;28;20084;-88
2022/05/31 04:26:44;;;;;;;2.50;2.30;;;;;;;21.83;42.63;101507.31;5010011;28;20038;-88
2022/05/31 04:29:28;;;;;;;2.83;2.22;;;;;;;21.64;42.54;101481.28;5007408;28;20068;-87
2022/05/31 04:32:14;;;;;;;3.67;2.50;;;;;;;21.73;42.45;101490.84;4996024;28;20096;-87
2022/05/31 04:35:07;;;;;;;3.13;2.22;;;;;;;21.83;42.31;101503.84;4996930;28;20050;-88
2022/05/31 04:37:33;;;;;;;3.40;2.30;;;;;;;21.81;42.56;101514.63;4976480;28;20034;-88
2022/05/31 04:40:01;;;;;;;2.28;1.98;;;;;;;21.72;42.21;101486.50;4994646;28;20046;-88
2022/05/31 04:42:50;;;;;;;2.40;2.08;;;;;;;21.74;42.21;101496.97;4985806;28;20046;-88
2022/05/31 04:45:37;;;;;;;2.80;2.30;;;;;;;21.79;42.26;101503.38;5007014;28;20076;-88
2022/05/31 04:48:26;;;;;;;3.25;2.30;;;;;;;21.27;42.47;101416.59;4999957;28;20034;-89
2022/05/31 04:50:53;;;;;;;2.65;2.30;;;;;;;21.83;42.19;101509.97;4999065;28;22741;-88
2022/05/31 04:53:21;;;;;;;3.60;2.40;;;;;;;21.79;42.44;101502.56;5011154;28;20034;-90
2022/05/31 04:56:12;;;;;;;2.97;2.20;;;;;;;21.82;42.19;101505.66;4961880;28;20057;-86
2022/05/31 04:58:38;;;;;;;2.45;2.17;;;;;;;21.78;42.23;101499.06;5010806;28;20136;-87
2022/05/31 05:01:08;;;;;;;2.70;2.20;;;;;;;21.69;42.12;101485.03;5011490;28;20036;-86
2022/05/31 05:03:38;;;;;;;3.05;2.10;;;;;;;21.83;42.28;101503.84;4990634;28;20044;-87
2022/05/31 05:06:08;;;;;;;2.35;2.08;;;;;;;21.47;42.27;101455.88;4990502;28;20739;-87
2022/05/31 05:08:35;;;;;;;4.25;2.17;;;;;;;21.81;42.54;101505.84;4975840;28;20041;-90
2022/05/31 05:11:03;;;;;;;2.08;1.92;;;;;;;21.81;42.33;101511.16;4987010;28;20040;-86
2022/05/31 05:13:32;;;;;;;3.20;2.13;;;;;;;21.72;42.41;101494.47;5007214;28;20152;-87
2022/05/31 05:16:18;;;;;;;2.58;2.00;;;;;;;21.86;42.09;101509.59;4992119;28;20121;-88
2022/05/31 05:18:49;;;;;;;2.35;2.15;;;;;;;21.81;42.28;101500.53;4989645;28;20041;-88
2022/05/31 05:21:16;;;;;;;2.50;2.10;;;;;;;21.84;42.29;101498.34;4977744;28;20037;-87
2022/05/31 05:23:43;;;;;;;3.05;2.20;;;;;;;21.52;42.22;101458.81;5007833;28;20164;-89
2022/05/31 05:26:13;;;;;;;2.53;2.03;;;;;;;21.78;42.34;101499.06;5009566;28;20028;-89
2022/05/31 05:31:57;;;;;;;2.58;2.28;;;;;;;21.82;42.33;101503.00;5002924;28;20034;-89
2022/05/31 05:34:38;;;;;;;2.88;2.05;;;;;;;21.56;42.28;101455.66;5011384;28;20066;-89
2022/05/31 05:37:13;;;;;;;2.30;1.92;;;;;;;21.82;42.18;101500.38;4976768;28;20451;-87
2022/05/31 05:39:39;;;;;;;3.10;2.00;;;;;;;21.82;42.31;101496.88;4990187;28;20034;-88
2022/05/31 05:42:23;;;;;;;2.35;2.15;;;;;;;21.82;42.23;101502.19;5009752;28;20064;-89
2022/05/31 05:45:11;;;;;;;2.45;2.08;;;;;;;21.84;42.27;101494.88;5008155;28;20042;-90
2022/05/31 05:47:39;;;;;;;2.22;1.88;;;;;;;21.70;42.24;101472.59;4990301;28;20090;-88
2022/05/31 05:50:06;;;;;;;3.08;2.15;;;;;;;21.83;42.34;101498.53;4971996;28;20129;-90
2022/05/31 05:53:09;;;;;;;2.20;1.90;;;;;;;20.87;42.52;101355.88;4921767;29;20059;-90
2022/05/31 05:55:41;;;;;;;2.28;1.90;;;;;;;21.83;42.18;101496.72;4992747;28;20056;-90
2022/05/31 05:58:15;;;;;;;2.97;1.88;;;;;;;21.54;42.41;101446.22;5004560;28;20077;-90
2022/05/31 06:01:33;;;;;;;2.10;1.90;;;;;;;21.65;42.06;101467.84;4919619;29;20039;-91
2022/05/31 06:04:18;;;;;;;2.28;1.85;;;;;;;21.79;42.07;101492.78;4929781;29;20035;-91
2022/05/31 06:06:45;;;;;;;1.75;1.65;;;;;;;21.83;41.88;101502.00;4976807;28;20045;-91
2022/05/31 06:09:19;;;;;;;2.72;1.83;;;;;;;21.78;42.19;101493.78;5012558;28;20727;-91
2022/05/31 06:12:03;;;;;;;2.10;1.77;;;;;;;21.56;42.22;101457.47;5004511;28;20044;-91
2022/05/31 06:14:39;;;;;;;2.33;1.70;;;;;;;21.80;42.18;101497.06;5006970;28;20084;-91
2022/05/31 06:17:20;;;;;;;2.00;1.80;;;;;;;21.85;42.11;101507.97;4993540;28;20046;-88
2022/05/31 06:19:48;;;;;;;1.80;1.63;;;;;;;21.02;42.19;101373.50;4982363;28;20080;-89
2022/05/31 06:22:15;;;;;;;2.42;2.15;;;;;;;21.55;42.21;101453.19;4998558;28;20377;-87
2022/05/31 06:24:52;;;;;;;3.13;2.30;;;;;;;21.85;41.95;101505.31;4993219;28;20033;-90
2022/05/31 06:27:36;;;;;;;2.10;1.63;;;;;;;21.82;42.43;101503.00;5007347;28;20548;-90
2022/05/31 06:30:04;;;;;;;2.00;1.77;;;;;;;21.86;42.07;101501.66;5006705;28;20104;-88
2022/05/31 06:32:30;;;;;;;2.47;2.10;;;;;;;21.59;41.96;101465.91;4975734;28;20045;-88
2022/05/31 06:34:56;;;;;;;3.15;1.67;;;;;;;21.80;41.99;101504.19;5002831;28;20190;-89
2022/05/31 06:37:33;;;;;;;2.65;1.98;;;;;;;21.80;42.29;101488.28;4989668;28;20121;-85
2022/05/31 06:39:59;;;;;;;2.35;1.50;;;;;;;21.67;42.42;101476.44;5002943;28;20042;-87
2022/05/31 06:42:47;;;;;;;2.97;2.00;;;;;;;21.85;42.28;101500.00;4985752;28;20042;-85
2022/05/31 06:45:41;;;;;;;2.17;1.63;;;;;;;21.64;42.30;101468.84;4954156;28;20038;-88
2022/05/31 06:48:42;;;;;;;2.25;1.73;;;;;;;21.71;42.39;101476.91;4971970;28;20470;-87
2022/05/31 06:57:47;;;;;;;3.35;1.90;;;;;;;21.82;42.53;101504.84;4982801;28;20626;-84
2022/05/31 07:00:42;;;;;;;4.40;1.80;;;;;;;21.73;42.38;101474.94;4986751;28;20058;-85
2022/05/31 07:03:07;;;;;;;2.10;1.90;;;;;;;21.83;42.28;101495.88;4984890;28;20551;-85
2022/05/31 07:05:38;;;;;;;3.85;1.80;;;;;;;21.66;42.27;101466.84;5008261;28;20045;-85
2022/05/31 07:08:05;;;;;;;2.10;1.85;;;;;;;21.76;42.29;101481.69;4963991;28;20038;-85
2022/05/31 07:10:50;;;;;;;1.95;1.65;;;;;;;21.86;42.03;101490.22;5003085;28;20124;-84
2022/05/31 07:13:16;;;;;;;1.88;1.77;;;;;;;21.90;42.18;101494.16;4989797;28;20046;-85
2022/05/31 07:16:01;;;;;;;2.10;1.85;;;;;;;21.91;42.32;101482.59;4988556;28;20078;-85
2022/05/31 07:18:45;;;;;;;2.40;1.95;;;;;;;21.92;42.00;101487.72;4989930;28;20036;-85
2022/05/31 07:21:11;;;;;;;1.98;1.77;;;;;;;21.80;42.26;101467.91;5005732;28;20054;-85
2022/05/31 07:23:40;;;;;;;2.47;1.75;;;;;;;21.73;41.87;101455.53;4963658;28;20035;-85
2022/05/31 07:26:07;;;;;;;1.92;1.70;;;;;;;21.83;42.32;101467.53;5005233;28;20041;-85
2022/05/31 07:28:34;;;;;;;2.30;1.73;;;;;;;21.95;42.26;101479.41;4976137;28;20034;-86
2022/05/31 07:31:01;;;;;;;2.00;1.80;;;;;;;22.00;41.85;101477.03;4991076;28;20038;-86
2022/05/31 07:33:28;;;;;;;2.90;1.70;;;;;;;21.97;42.18;101473.91;5005272;28;20404;-86
2022/05/31 07:35:57;;;;;;;2.55;1.90;;;;;;;22.01;42.08;101473.38;4988549;28;20045;-87
2022/05/31 07:38:23;;;;;;;3.08;1.58;;;;;;;22.02;42.20;101476.84;4997830;28;20126;-87
2022/05/31 07:40:50;;;;;;;2.35;1.67;;;;;;;21.98;42.18;101465.78;4994516;28;20800;-87
2022/05/31 07:43:16;;;;;;;3.15;1.90;;;;;;;22.05;42.35;101471.22;5002841;28;20026;-87
2022/05/31 07:45:43;;;;;;;1.67;1.50;;;;;;;21.96;42.30;101459.00;5003071;28;20042;-88
2022/05/31 07:48:11;;;;;;;2.08;1.70;;;;;;;21.93;42.09;101446.09;5001160;28;20050;-80
2022/05/31 07:50:40;;;;;;;3.25;1.98;;;;;;;22.28;41.69;101471.19;4979342;28;20038;-92
2022/05/31 07:53:35;;;;;;;2.45;1.65;;;;;;;22.38;41.70;101453.16;4968077;28;20081;-90
2022/05/31 07:56:21;;;;;;;1.95;1.55;;;;;;;22.59;41.55;101460.41;4961867;28;20040;-81
2022/05/31 07:59:05;;;;;;;3.15;1.80;;;;;;;22.64;41.41;101450.09;4986462;28;20163;-85
2022/05/31 08:02:00;;;;;;;1.85;1.70;;;;;;;22.56;41.46;101426.25;4959814;28;20458;-85
2022/05/31 08:04:42;;;;;;;2.72;1.70;;;;;;;22.67;41.65;101440.94;4995866;28;20045;-81
2022/05/31 08:07:07;;;;;;;3.28;1.73;;;;;;;22.79;41.38;101442.91;4939163;28;20938;-83
2022/05/31 08:09:33;;;;;;;3.03;1.60;;;;;;;22.84;41.33;101450.38;4988090;28;20497;-83
2022/05/31 08:11:58;;;;;;;3.05;1.85;;;;;;;22.84;41.32;101437.91;5001200;28;20093;-86
2022/05/31 08:14:24;;;;;;;2.83;1.55;;;;;;;22.92;41.36;101445.78;4947596;28;20037;-86
2022/05/31 08:16:52;;;;;;;2.30;2.03;;;;;;;22.96;41.05;101446.22;4999184;28;20125;-84
2022/05/31 08:19:18;;;;;;;3.90;1.90;;;;;;;22.92;41.22;101434.31;4957503;28;20038;-88
2022/05/31 08:21:43;;;;;;;2.00;1.60;;;;;;;23.24;40.95;101459.66;4971060;28;20046;-84
2022/05/31 08:24:09;;;;;;;2.40;1.90;;;;;;;23.11;40.76;101427.59;4917961;28;20038;-83
2022/05/31 08:26:35;;;;;;;3.08;1.65;;;;;;;23.21;41.03;101446.75;4999122;28;20030;-84
2022/05/31 08:29:00;;;;;;;4.05;1.90;;;;;;;23.32;40.80;101453.38;4988549;28;20092;-87
2022/05/31 08:31:31;;;;;;;2.33;1.45;;;;;;;23.02;40.96;101396.88;4949088;28;20764;-86
2022/05/31 08:33:57;;;;;;;2.63;1.73;;;;;;;22.88;40.70;101362.19;4990576;28;20047;-88
2022/05/31 08:36:22;;;;;;;1.83;1.50;;;;;;;23.36;40.88;101425.44;4944900;28;20149;-85
2022/05/31 08:38:48;;;;;;;3.63;1.73;;;;;;;23.56;40.76;101457.53;4979438;28;20042;-85
2022/05/31 08:41:25;;;;;;;1.58;1.48;;;;;;;23.61;40.91;101448.00;4949439;28;20488;-85
2022/05/31 08:44:16;;;;;;;2.75;1.80;;;;;;;23.44;40.59;101422.66;4989550;28;20046;-83
2022/05/31 08:47:02;;;;;;;3.40;1.60;;;;;;;23.69;40.58;101447.88;4976312;28;20045;-87
2022/05/31 08:52:56;;;;;;;5.30;1.98;;;;;;;23.17;40.50;101363.94;4987330;28;20050;-88
2022/05/31 08:58:27;;;;;;;2.60;1.55;;;;;;;23.59;40.47;101407.50;4948280;28;20117;-87
2022/05/31 09:00:57;;;;;;;3.75;1.67;;;;;;;23.70;40.31;101411.50;5005437;28;20058;-86
2022/05/31 09:03:30;;;;;;;;;;;;;;;23.92;40.38;101444.19;4976169;28;20092;-87
2022/05/31 09:06:40;;;;;;;4.15;2.17;;;;;;;23.88;40.55;101440.25;4984302;28;19960;-86
2022/05/31 09:09:15;;;;;;;2.75;1.90;;;;;;;23.30;40.58;101349.94;4946197;28;20588;-86
2022/05/31 09:11:53;;;;;;;5.90;1.75;;;;;;;23.71;40.50;101405.16;4997654;28;20037;-85
2022/05/31 09:14:28;;;;;;;3.13;1.70;;;;;;;23.72;40.41;101404.97;4938772;28;20042;-84
2022/05/31 09:17:16;;;;;;;2.85;2.00;;;;;;;23.87;40.54;101412.00;4965361;28;20022;-84
2022/05/31 09:19:48;;;;;;;3.00;1.75;;;;;;;23.81;40.27;101403.78;4938772;28;20038;-88
2022/05/31 09:22:15;;;;;;;7.45;2.05;;;;;;;23.78;40.31;101390.91;4985779;28;20053;-91
2022/05/31 09:24:44;;;;;;;4.15;2.00;;;;;;;24.07;40.19;101423.66;4933032;28;20173;-91
2022/05/31 09:27:24;;;;;;;3.03;1.77;;;;;;;24.04;40.22;101418.69;4987014;28;20034;-89
2022/05/31 09:30:01;;;;;;;2.03;1.73;;;;;;;23.93;40.33;101395.31;4957323;28;20437;-89
2022/05/31 09:32:46;;;;;;;3.22;1.88;;;;;;;24.06;40.26;101430.81;4987641;28;20099;-88
2022/05/31 09:35:48;;;;;;;9.40;2.20;;;;;;;24.10;40.14;101424.09;4990244;28;20053;-84
2022/05/31 09:38:14;;;;;;;5.30;2.10;;;;;;;24.14;40.15;101423.69;5003694;28;20090;-90
2022/05/31 09:41:06;;;;;;;3.25;2.00;;;;;;;24.20;40.00;101414.94;4982416;28;20049;-90
2022/05/31 09:44:03;;;;;;;2.83;1.90;;;;;;;24.25;39.94;101417.84;5010722;28;20843;-89
2022/05/31 09:46:40;;;;;;;3.78;2.00;;;;;;;24.31;39.73;101419.75;4963999;28;20099;-94
2022/05/31 09:49:40;;;;;;;3.78;1.95;;;;;;;24.22;39.93;101405.72;4985343;28;20646;-81
2022/05/31 09:52:15;;;;;;;4.80;2.28;;;;;;;24.15;39.94;101401.38;4967601;28;20034;-88
2022/05/31 09:58:10;;;;;;;4.15;2.30;;;;;;;24.29;39.94;101421.78;4964253;28;20057;-85
2022/05/31 10:01:05;;;;;;;5.25;1.95;;;;;;;24.33;39.70;101417.72;5006222;28;20052;-86
2022/05/31 10:03:46;;;;;;;6.45;2.40;;;;;;;24.23;39.92;101407.38;4895706;28;20040;-83
2022/05/31 10:06:19;;;;;;;6.93;2.15;;;;;;;24.28;39.99;101420.94;5003192;28;20049;-84
2022/05/31 10:08:49;;;;;;;11.27;2.72;;;;;;;24.24;39.69;101416.22;4906980;28;20018;-84
2022/05/31 10:11:24;;;;;;;4.18;2.20;;;;;;;24.28;39.80;101412.94;5002217;28;20046;-85
2022/05/31 10:14:04;;;;;;;5.55;2.10;;;;;;;24.31;39.97;101409.94;4956840;28;20046;-85
2022/05/31 10:16:35;;;;;;;5.35;1.85;;;;;;;24.32;39.79;101410.75;4987319;28;20069;-86
2022/05/31 10:19:21;;;;;;;6.30;2.08;;;;;;;24.34;39.82;101398.06;4927669;28;20046;-88
2022/05/31 10:21:47;;;;;;;3.83;2.22;;;;;;;24.28;39.97;101382.84;4984147;28;20508;-86
2022/05/31 10:24:28;;;;;;;5.72;2.03;;;;;;;24.25;39.86;101407.22;4928781;28;20053;-88
2022/05/31 10:27:28;;;;;;;6.25;2.40;;;;;;;24.11;38.88;101401.78;4983207;28;20045;-86
2022/05/31 10:30:09;;;;;;;5.57;2.78;;;;;;;24.19;38.98;101408.78;4912730;28;20022;-85
2022/05/31 10:33:09;;;;;;;4.80;2.20;;;;;;;24.06;39.00;101371.47;5003008;28;20357;-87
2022/05/31 10:35:43;;;;;;;7.95;2.03;;;;;;;24.33;39.31;101399.91;4866888;28;20134;-84
2022/05/31 10:38:17;;;;;;;5.97;2.40;;;;;;;24.40;39.38;101395.44;4968865;28;20032;-87
2022/05/31 10:40:43;;;;;;;6.13;2.67;;;;;;;24.43;39.22;101393.41;4906354;28;20533;-85
2022/05/31 10:43:30;;;;;;;3.10;1.85;;;;;;;24.46;39.33;101387.69;4972497;28;20125;-84
2022/05/31 10:45:56;;;;;;;3.10;1.90;;;;;;;24.40;39.38;101386.63;4898485;28;20038;-87
2022/05/31 10:48:22;;;;;;;2.72;1.92;;;;;;;24.49;39.26;101396.09;4968245;28;20519;-85
2022/05/31 10:51:05;;;;;;;5.18;1.98;;;;;;;24.16;39.17;101345.31;4899538;28;20488;-88
2022/05/31 10:53:48;;;;;;;4.45;2.00;;;;;;;24.47;39.36;101379.50;4982149;28;20039;-87
2022/05/31 10:56:35;;;;;;;6.75;2.72;;;;;;;23.95;39.16;101298.34;4918028;28;20034;-88
2022/05/31 10:59:05;;;;;;;4.57;2.28;;;;;;;24.51;39.33;101387.91;4975264;28;20038;-85
2022/05/31 11:01:35;;;;;;;5.65;2.17;;;;;;;24.24;37.83;101369.13;4924659;28;20125;-83
2022/05/31 11:04:19;;;;;;;;;;;;;;;24.25;37.36;101391.25;4961719;28;20038;-84
2022/05/31 11:07:17;;;;;;;3.28;1.98;;;;;;;24.20;38.22;101383.00;4912795;28;19918;-85
2022/05/31 11:12:58;;;;;;;6.40;2.55;;;;;;;24.23;38.81;101382.59;4925864;28;20116;-85
2022/05/31 11:15:57;;;;;;;3.88;2.00;;;;;;;24.21;38.66;101384.63;4963455;28;20060;-85
2022/05/31 11:18:47;;;;;;;5.55;2.28;;;;;;;24.24;38.68;101373.63;4927166;28;20038;-85
2022/05/31 11:21:34;;;;;;;2.17;1.63;;;;;;;24.24;38.60;101381.59;4958880;28;20478;-85
2022/05/31 11:24:33;;;;;;;6.07;2.63;;;;;;;24.06;38.62;101345.69;4967505;28;20045;-84
2022/05/31 11:27:30;;;;;;;7.32;2.20;;;;;;;24.20;38.69;101373.16;4952061;28;20047;-84
2022/05/31 11:30:30;;;;;;;4.20;2.03;;;;;;;24.03;38.59;101350.53;4960198;28;20097;-84
2022/05/31 11:33:07;;;;;;;;;;;;;;;24.20;38.54;101378.50;4925215;28;20049;-84
2022/05/31 11:35:56;;;;;;;6.65;2.00;;;;;;;24.19;38.67;101373.38;4977700;28;20456;-84
2022/05/31 11:38:27;;;;;;;5.57;2.38;;;;;;;24.18;38.50;101371.72;4902431;28;20141;-84
2022/05/31 11:41:12;;;;;;;4.25;2.22;;;;;;;24.17;38.61;101372.75;4968549;28;20652;-85
2022/05/31 11:44:19;;;;;;;2.85;1.90;;;;;;;24.06;38.65;101358.16;4943311;28;26488;-84
2022/05/31 11:47:03;;;;;;;3.70;1.95;;;;;;;24.07;38.40;101357.16;4966137;28;20057;-85
2022/05/31 11:49:57;;;;;;;2.47;1.80;;;;;;;23.77;38.53;101306.81;4928449;28;20151;-83
2022/05/31 11:52:50;;;;;;;4.53;2.03;;;;;;;24.09;38.61;101363.09;4962731;28;20042;-84
2022/05/31 11:55:25;;;;;;;5.45;2.10;;;;;;;24.04;38.54;101352.19;4913436;28;20034;-85
2022/05/31 11:58:19;;;;;;;2.72;1.95;;;;;;;24.09;38.56;101363.09;4966428;28;20497;-84
2022/05/31 12:01:01;;;;;;;3.55;1.90;;;;;;;24.06;38.64;101360.81;4940987;28;20042;-84
2022/05/31 12:03:34;;;;;;;4.03;2.35;;;;;;;24.06;38.83;101358.16;4965420;28;20031;-84
2022/05/31 12:06:28;;;;;;;3.78;2.10;;;;;;;23.98;38.67;101345.00;4938986;28;20733;-84
2022/05/31 12:09:02;;;;;;;2.22;2.03;;;;;;;23.98;38.75;101345.00;4973867;28;20043;-84
2022/05/31 12:11:42;;;;;;;3.35;2.15;;;;;;;24.04;38.62;101354.84;4906487;28;20772;-84
2022/05/31 12:14:13;;;;;;;2.35;1.80;;;;;;;23.99;38.70;101349.31;4954584;28;20031;-85
2022/05/31 12:16:41;;;;;;;2.83;2.17;;;;;;;23.71;38.76;101310.25;4966732;28;20102;-84
2022/05/31 12:19:15;;;;;;;3.80;2.08;;;;;;;23.77;38.76;101312.13;4924925;28;20031;-86
2022/05/31 12:21:58;;;;;;;2.00;1.85;;;;;;;23.89;38.76;101325.72;4979084;28;20107;-85
2022/05/31 12:24:43;;;;;;;3.78;2.05;;;;;;;24.01;38.52;101347.25;4931296;28;20102;-84
2022/05/31 12:27:22;;;;;;;2.35;1.98;;;;;;;23.95;38.75;101342.72;4951136;28;20448;-86
2022/05/31 12:30:02;;;;;;;4.50;2.17;;;;;;;23.82;38.48;101316.84;4939436;28;20023;-85
2022/05/31 12:32:31;;;;;;;3.40;2.30;;;;;;;23.99;38.78;101350.13;4967250;28;20035;-85